Home > Products > Valid Products > TAF

000
FTUS46 KSEW 291700
TAFHQM
TAF
KHQM 291733Z 2918/3018 16012KT 6SM HZ OVC015
     FM300300 18010KT 6SM BR OVC008=



000
FTUS46 KSEW 291700
TAFCLM
TAF
KCLM 291733Z 2918/3018 09005KT P6SM BKN050 OVC100
     FM300000 VRB03KT P6SM BKN050 OVC100=



000
FTUS46 KSEW 291700
TAFBFI
TAF
KBFI 291733Z 2918/3018 17009KT P6SM BKN040 OVC100
     FM300400 17005KT P6SM OVC050=



000
FTUS46 KSEW 291700
TAFOLM
TAF
KOLM 291733Z 2918/3018 22006KT P6SM SCT070 OVC200
     FM292100 24006KT P6SM BKN060 OVC100
     FM300600 20004KT P6SM BKN025 OVC050=



000
FTUS46 KSEW 291700
TAFBLI
TAF
KBLI 291733Z 2918/3018 15012G20KT P6SM -RA OVC060
     FM300000 16010KT P6SM BKN060 OVC100
     FM300600 16007KT P6SM BKN050 OVC100=



000
FTUS46 KSEW 291700
TAFHQM
TAF
KHQM 291733Z 2918/3018 16012KT 6SM HZ OVC015
     FM300300 18010KT 6SM BR OVC008=



000
FTUS46 KSEW 291700
TAFSEA
TAF
KSEA 291733Z 2918/3024 19008KT P6SM BKN040 OVC100
     FM292100 21009KT P6SM BKN060 OVC100
     FM300400 18006KT P6SM OVC050=



000
FTUS46 KSEW 291700
TAFPAE
TAF
KPAE 291733Z 2918/3018 16015G25KT P6SM SCT050 OVC100
     FM300000 18012KT P6SM BKN050 OVC100=



000
FTUS46 KSEW 291700
TAFOLM
TAF
KOLM 291733Z 2918/3018 22006KT P6SM SCT070 OVC200
     FM292100 24006KT P6SM BKN060 OVC100
     FM300600 20004KT P6SM BKN025 OVC050=



000
FTUS46 KSEW 291700
TAFCLM
TAF
KCLM 291733Z 2918/3018 09005KT P6SM BKN050 OVC100
     FM300000 VRB03KT P6SM BKN050 OVC100=



000
FTUS46 KSEW 291700
TAFBLI
TAF
KBLI 291733Z 2918/3018 15012G20KT P6SM -RA OVC060
     FM300000 16010KT P6SM BKN060 OVC100
     FM300600 16007KT P6SM BKN050 OVC100=



000
FTUS46 KSEW 291700
TAFSEA
TAF
KSEA 291733Z 2918/3024 19008KT P6SM BKN040 OVC100
     FM292100 21009KT P6SM BKN060 OVC100
     FM300400 18006KT P6SM OVC050=



000
FTUS46 KSEW 291700
TAFBFI
TAF
KBFI 291733Z 2918/3018 17009KT P6SM BKN040 OVC100
     FM300400 17005KT P6SM OVC050=



000
FTUS46 KSEW 291700
TAFPAE
TAF
KPAE 291733Z 2918/3018 16015G25KT P6SM SCT050 OVC100
     FM300000 18012KT P6SM BKN050 OVC100=



000
FTUS46 KSEW 291500 AAA
TAFSEA
TAF AMD
KSEA 291509Z 2915/3018 19007KT P6SM BKN060 OVC100
     FM292100 23009KT P6SM SCT060 OVC100
     FM300900 18004KT P6SM OVC050=



000
FTUS46 KSEW 291100
TAFHQM
TAF
KHQM 291120Z 2912/3012 11003KT P6SM SCT035 OVC070
     FM291800 19007KT P6SM OVC012=



000
FTUS46 KSEW 291100
TAFHQM
TAF
KHQM 291120Z 2912/3012 11003KT P6SM SCT035 OVC070
     FM291800 19007KT P6SM OVC012=



000
FTUS46 KSEW 291100
TAFBLI
TAF
KBLI 291120Z 2912/3012 16013G20KT P6SM -RA SCT040 BKN060 OVC090
      TEMPO 2912/2916 -RA BKN040 OVC060
     FM291800 16012G18KT P6SM SCT045 BKN070 OVC100
     FM300000 19006KT P6SM OVC050
      TEMPO 3002/3006 -RA=



000
FTUS46 KSEW 291100
TAFCLM
TAF
KCLM 291120Z 2912/3012 VRB03KT P6SM BKN060 OVC100
      TEMPO 2912/2916 -RA OVC050=



000
FTUS46 KSEW 291100
TAFSEA
TAF
KSEA 291120Z 2912/3018 14006KT P6SM SCT035 OVC100
     FM292000 23008KT P6SM SCT060 BKN120 OVC250
     FM300900 18004KT P6SM OVC050=



000
FTUS46 KSEW 291100
TAFBFI
TAF
KBFI 291120Z 2912/3012 17006KT P6SM SCT040 OVC100
     FM292000 19008KT P6SM SCT060 BKN120 OVC250
     FM300900 15004KT P6SM OVC050=



000
FTUS46 KSEW 291100
TAFPAE
TAF
KPAE 291120Z 2912/3012 15012G18KT P6SM BKN060 OVC100
      TEMPO 2912/2916 -RA BKN045 OVC070
     FM292000 18008KT P6SM SCT050 BKN120 OVC250
     FM300900 15006KT P6SM OVC050=



000
FTUS46 KSEW 291100
TAFOLM
TAF
KOLM 291120Z 2912/3012 22005KT P6SM SCT030 OVC110
     FM292000 24006KT P6SM SCT060 BKN120 OVC250
     FM301000 00000KT P6SM OVC025=



000
FTUS46 KSEW 291100
TAFBLI
TAF
KBLI 291120Z 2912/3012 16013G20KT P6SM -RA SCT040 BKN060 OVC090
      TEMPO 2912/2916 -RA BKN040 OVC060
     FM291800 16012G18KT P6SM SCT045 BKN070 OVC100
     FM300000 19006KT P6SM OVC050
      TEMPO 3002/3006 -RA=



000
FTUS46 KSEW 291100
TAFOLM
TAF
KOLM 291120Z 2912/3012 22005KT P6SM SCT030 OVC110
     FM292000 24006KT P6SM SCT060 BKN120 OVC250
     FM301000 00000KT P6SM OVC025=



000
FTUS46 KSEW 291100
TAFBFI
TAF
KBFI 291120Z 2912/3012 17006KT P6SM SCT040 OVC100
     FM292000 19008KT P6SM SCT060 BKN120 OVC250
     FM300900 15004KT P6SM OVC050=



000
FTUS46 KSEW 291100
TAFSEA
TAF
KSEA 291120Z 2912/3018 14006KT P6SM SCT035 OVC100
     FM292000 23008KT P6SM SCT060 BKN120 OVC250
     FM300900 18004KT P6SM OVC050=



000
FTUS46 KSEW 291100
TAFCLM
TAF
KCLM 291120Z 2912/3012 VRB03KT P6SM BKN060 OVC100
      TEMPO 2912/2916 -RA OVC050=



000
FTUS46 KSEW 291100
TAFPAE
TAF
KPAE 291120Z 2912/3012 15012G18KT P6SM BKN060 OVC100
      TEMPO 2912/2916 -RA BKN045 OVC070
     FM292000 18008KT P6SM SCT050 BKN120 OVC250
     FM300900 15006KT P6SM OVC050=



000
FTUS46 KSEW 290900 AAA
TAFSEA
TAF AMD
KSEA 290905Z 2909/3012 14006KT P6SM FEW030 OVC100
     FM291200 18005KT P6SM SCT060 OVC100
     FM292000 23008KT P6SM SCT060 BKN120 OVC250
     FM300900 18004KT P6SM OVC050=



000
FTUS46 KSEW 290500
TAFCLM
TAF
KCLM 290520Z 2906/3006 00000KT P6SM OVC080
     FM291000 VRB03KT P6SM BKN050 OVC080
      TEMPO 3002/3006 -RA OVC050=



000
FTUS46 KSEW 290500
TAFBLI
TAF
KBLI 290520Z 2906/3006 16010G16KT P6SM SCT040 BKN060 OVC090
      TEMPO 2906/2910 -RA BKN040 OVC060
     FM291000 16012G18KT P6SM -RA BKN040 OVC060
     FM291800 16012G18KT P6SM SCT045 BKN070 OVC100
      TEMPO 3002/3006 -RA OVC045=



000
FTUS46 KSEW 290500
TAFHQM
TAF
KHQM 290520Z 2906/3006 11003KT P6SM SCT035 OVC070
     FM291600 19007KT P6SM OVC015=



000
FTUS46 KSEW 290500
TAFOLM
TAF
KOLM 290520Z 2906/3006 22005KT P6SM SCT070 OVC110
     FM292000 24006KT P6SM SCT060 BKN120 OVC250=



000
FTUS46 KSEW 290500
TAFBFI
TAF
KBFI 290520Z 2906/3006 17006KT P6SM BKN060 OVC100
     FM291200 15006KT P6SM SCT060 OVC100
     FM292000 19008KT P6SM SCT060 BKN120 OVC250=



000
FTUS46 KSEW 290500
TAFSEA
TAF
KSEA 290520Z 2906/3012 21007KT P6SM BKN060 OVC100
     FM291200 18005KT P6SM SCT060 OVC100
     FM292000 23008KT P6SM SCT060 BKN120 OVC250
     FM300900 18004KT P6SM OVC050=



000
FTUS46 KSEW 290500
TAFPAE
TAF
KPAE 290520Z 2906/3006 17012G18KT P6SM BKN060 OVC100
      TEMPO 2910/2914 -RA BKN045 OVC070
     FM292000 18008KT P6SM SCT050 BKN120 OVC250=



000
FTUS46 KSEW 290500
TAFBLI
TAF
KBLI 290520Z 2906/3006 16010G16KT P6SM SCT040 BKN060 OVC090
      TEMPO 2906/2910 -RA BKN040 OVC060
     FM291000 16012G18KT P6SM -RA BKN040 OVC060
     FM291800 16012G18KT P6SM SCT045 BKN070 OVC100
      TEMPO 3002/3006 -RA OVC045=



000
FTUS46 KSEW 290500
TAFHQM
TAF
KHQM 290520Z 2906/3006 11003KT P6SM SCT035 OVC070
     FM291600 19007KT P6SM OVC015=



000
FTUS46 KSEW 290500
TAFOLM
TAF
KOLM 290520Z 2906/3006 22005KT P6SM SCT070 OVC110
     FM292000 24006KT P6SM SCT060 BKN120 OVC250=



000
FTUS46 KSEW 290500
TAFCLM
TAF
KCLM 290520Z 2906/3006 00000KT P6SM OVC080
     FM291000 VRB03KT P6SM BKN050 OVC080
      TEMPO 3002/3006 -RA OVC050=



000
FTUS46 KSEW 290500
TAFBFI
TAF
KBFI 290520Z 2906/3006 17006KT P6SM BKN060 OVC100
     FM291200 15006KT P6SM SCT060 OVC100
     FM292000 19008KT P6SM SCT060 BKN120 OVC250=



000
FTUS46 KSEW 290500
TAFPAE
TAF
KPAE 290520Z 2906/3006 17012G18KT P6SM BKN060 OVC100
      TEMPO 2910/2914 -RA BKN045 OVC070
     FM292000 18008KT P6SM SCT050 BKN120 OVC250=



000
FTUS46 KSEW 290500
TAFSEA
TAF
KSEA 290520Z 2906/3012 21007KT P6SM BKN060 OVC100
     FM291200 18005KT P6SM SCT060 OVC100
     FM292000 23008KT P6SM SCT060 BKN120 OVC250
     FM300900 18004KT P6SM OVC050=



000
FTUS46 KSEW 282300
TAFOLM
TAF
KOLM 282320Z 2900/2924 22008KT P6SM SCT030 BKN050 OVC100
     FM290300 20004KT P6SM BKN050 OVC080
     FM290600 19005KT P6SM OVC050=



000
FTUS46 KSEW 282300
TAFBFI
TAF
KBFI 282320Z 2900/2924 20010G18KT P6SM SCT050 BKN100
     FM290200 18006KT P6SM BKN050 OVC100
     FM290600 16006KT P6SM BKN050 OVC080=



000
FTUS46 KSEW 282300
TAFPAE
TAF
KPAE 282320Z 2900/2924 18009KT P6SM BKN050 BKN100
     FM290600 17012KT P6SM OVC050=



000
FTUS46 KSEW 282300
TAFBLI
TAF
KBLI 282320Z 2900/2924 18006KT P6SM BKN050 OVC100
     FM290400 17012KT P6SM VCSH BKN050 OVC080
     FM291000 16012KT P6SM -RA OVC050=



000
FTUS46 KSEW 282300
TAFSEA
TAF
KSEA 282320Z 2900/3006 21010G20KT P6SM SCT040 BKN100
     FM290200 21008KT P6SM BKN050 OVC100
     FM290600 18007KT P6SM BKN050 OVC080=



000
FTUS46 KSEW 282300
TAFHQM
TAF
KHQM 282320Z 2900/2924 21012KT 6SM HZ BKN045 OVC080
     FM290600 18008KT 6SM BR BKN050 OVC080
     FM291200 14008KT 6SM BR OVC050=



000
FTUS46 KSEW 282300
TAFCLM
TAF
KCLM 282320Z 2900/2924 VRB03KT P6SM BKN045 OVC080
     FM290600 VRB03KT P6SM VCSH OVC045=



000
FTUS46 KSEW 282100 AAA
TAFSEA
TAF AMD
KSEA 282101Z 2821/2924 20012G20KT P6SM SCT040 BKN100
     FM290100 20009KT P6SM BKN050 OVC080
     FM290600 18007KT P6SM OVC050=



000
FTUS46 KSEW 281700
TAFPAE
TAF
KPAE 281736Z 2818/2918 18010KT P6SM SCT035 BKN090
      TEMPO 2818/2820 BKN035 BKN090
     FM290100 18009KT P6SM BKN050 OVC080
     FM290600 17012KT P6SM OVC050=



000
FTUS46 KSEW 281700
TAFHQM
TAF
KHQM 281736Z 2818/2918 22009KT P6SM SCT020 BKN090
     FM290000 21012KT P6SM SCT035 BKN050 OVC080
     FM290300 19010KT P6SM OVC050=



000
FTUS46 KSEW 281700
TAFSEA
TAF
KSEA 281736Z 2818/2924 21014G22KT P6SM BKN024 BKN090
     FM282100 20012KT P6SM SCT030 BKN090
     FM290100 20009KT P6SM BKN050 OVC080
     FM290600 18007KT P6SM OVC050=



000
FTUS46 KSEW 281700
TAFOLM
TAF
KOLM 281736Z 2818/2918 22008KT P6SM SCT025 BKN100
     FM290100 20008KT P6SM BKN060 OVC100
     FM290600 19006KT P6SM BKN080=



000
FTUS46 KSEW 281700
TAFBLI
TAF
KBLI 281736Z 2818/2918 16010KT P6SM SCT030 BKN080
     FM290000 18006KT P6SM BKN050 OVC080
     FM291000 14007KT P6SM -RA OVC050=



000
FTUS46 KSEW 281700
TAFPAE
TAF
KPAE 281736Z 2818/2918 18010KT P6SM SCT035 BKN090
      TEMPO 2818/2820 BKN035 BKN090
     FM290100 18009KT P6SM BKN050 OVC080
     FM290600 17012KT P6SM OVC050=



000
FTUS46 KSEW 281700
TAFHQM
TAF
KHQM 281736Z 2818/2918 22009KT P6SM SCT020 BKN090
     FM290000 21012KT P6SM SCT035 BKN050 OVC080
     FM290300 19010KT P6SM OVC050=



000
FTUS46 KSEW 281700
TAFBFI
TAF
KBFI 281736Z 2818/2918 20012G18KT P6SM SCT026 BKN090
      TEMPO 2818/2820 BKN026 BKN090
     FM282100 21010KT P6SM SCT030 BKN090
     FM290100 18007KT P6SM BKN060 OVC080
     FM290600 16007KT P6SM OVC050=



000
FTUS46 KSEW 281700
TAFOLM
TAF
KOLM 281736Z 2818/2918 22008KT P6SM SCT025 BKN100
     FM290100 20008KT P6SM BKN060 OVC100
     FM290600 19006KT P6SM BKN080=



000
FTUS46 KSEW 281700
TAFSEA
TAF
KSEA 281736Z 2818/2924 21014G22KT P6SM BKN024 BKN090
     FM282100 20012KT P6SM SCT030 BKN090
     FM290100 20009KT P6SM BKN050 OVC080
     FM290600 18007KT P6SM OVC050=



000
FTUS46 KSEW 281700
TAFCLM
TAF
KCLM 281736Z 2818/2918 28010KT P6SM BKN080
     FM290000 28006KT P6SM VCSH BKN050 BKN080
     FM290600 25004KT P6SM OVC050=



000
FTUS46 KSEW 281700
TAFBLI
TAF
KBLI 281736Z 2818/2918 16010KT P6SM SCT030 BKN080
     FM290000 18006KT P6SM BKN050 OVC080
     FM291000 14007KT P6SM -RA OVC050=



000
FTUS46 KSEW 281700
TAFCLM
TAF
KCLM 281736Z 2818/2918 28010KT P6SM BKN080
     FM290000 28006KT P6SM VCSH BKN050 BKN080
     FM290600 25004KT P6SM OVC050=



000
FTUS46 KSEW 281700
TAFBFI
TAF
KBFI 281736Z 2818/2918 20012G18KT P6SM SCT026 BKN090
      TEMPO 2818/2820 BKN026 BKN090
     FM282100 21010KT P6SM SCT030 BKN090
     FM290100 18007KT P6SM BKN060 OVC080
     FM290600 16007KT P6SM OVC050=



000
FTUS46 KSEW 281500 AAA
TAFBFI
TAF AMD
KBFI 281524Z 2815/2912 20010G18KT P6SM BKN022
     FM281800 21010G16KT P6SM BKN030
     FM290400 VRB03KT P6SM BKN060 BKN080 OVC180
     FM291000 VRB03KT P6SM OVC080=



000
FTUS46 KSEW 281500 AAA
TAFPAE
TAF AMD
KPAE 281522Z 2815/2912 18007KT P6SM VCSH SCT020 BKN035 BKN080
     FM282200 16008KT P6SM SCT025 BKN040 OVC050
     FM290400 14008KT P6SM SCT040 OVC070
     FM290900 14008KT P6SM -RA OVC070=



000
FTUS46 KSEW 281500 AAA
TAFSEA
TAF AMD
KSEA 281506Z 2815/2918 21015G24KT P6SM BKN018
     FM281800 22014G22KT P6SM BKN024
     FM282100 22014G22KT P6SM BKN040
     FM290400 16006KT P6SM BKN050 OVC080
     FM291000 15006KT P6SM OVC080=



000
FTUS46 KSEW 281300 AAA
TAFOLM
TAF AMD
KOLM 281344Z 2814/2912 24010KT P6SM FEW028 SCT070
      TEMPO 2814/2818 BKN028 BKN070
     FM281800 23006KT P6SM VCSH SCT020 BKN040 BKN070
     FM290400 16004KT P6SM SCT045 BKN080 OVC180
     FM291000 15004KT P6SM OVC080=



000
FTUS46 KSEW 281300 AAA
TAFOLM
TAF AMD
KOLM 281344Z 2814/2912 24010KT P6SM FEW028 SCT070
      TEMPO 2814/2818 BKN028 BKN070
     FM281800 23006KT P6SM VCSH SCT020 BKN040 BKN070
     FM290400 16004KT P6SM SCT045 BKN080 OVC180
     FM291000 15004KT P6SM OVC080=



000
FTUS46 KSEW 281100
TAFOLM
TAF
KOLM 281130Z 2812/2912 22010G18KT P6SM VCSH BKN022 OVC030
     FM281800 23006KT P6SM VCSH SCT020 BKN040 BKN070
     FM290400 16004KT P6SM SCT045 BKN080 OVC180
     FM291000 15004KT P6SM OVC080=



000
FTUS46 KSEW 281100
TAFBFI
TAF
KBFI 281130Z 2812/2912 20012G18KT P6SM VCSH SCT019 SCT024 BKN090
      TEMPO 2812/2816 BKN019 BKN030
     FM282000 21010G16KT P6SM VCSH SCT021 BKN035 BKN060
     FM290400 VRB03KT P6SM SCT045 BKN080 OVC180
     FM291000 VRB03KT P6SM OVC080=



000
FTUS46 KSEW 281100
TAFPAE
TAF
KPAE 281130Z 2812/2912 22012G20KT P6SM -SHRA BKN013 OVC100
      TEMPO 2814/2818 30008KT P6SM -SHRA BKN011 OVC020
     FM281800 VRB06KT P6SM VCSH SCT013 BKN022 OVC030
     FM282200 16008KT P6SM SCT025 BKN035 OVC050
     FM290400 14008KT P6SM SCT040 OVC070
     FM290900 14008KT P6SM -RA OVC070=



000
FTUS46 KSEW 281100
TAFBLI
TAF
KBLI 281130Z 2812/2912 19014G22KT P6SM -SHRA SCT025 BKN040 OVC070
      TEMPO 2812/2816 P6SM -RA BKN022 OVC035
     FM290000 18006KT P6SM SCT040 OVC080
     FM291000 14007KT P6SM -RA OVC050=



000
FTUS46 KSEW 281100
TAFSEA
TAF
KSEA 281130Z 2812/2918 21016G24KT P6SM VCSH BKN016 BKN022
      TEMPO 2816/2820 SCT016 BKN025
     FM282000 22012G18KT P6SM VCSH SCT018 BKN035 BKN060
     FM290400 16004KT P6SM SCT045 BKN080 OVC180
     FM291000 15004KT P6SM OVC080=



000
FTUS46 KSEW 281100
TAFHQM
TAF
KHQM 281130Z 2812/2912 24015G25KT P6SM SCT018 BKN035
      TEMPO 2812/2816 5SM -SHRA BR BKN018 OVC035
     FM282200 19009KT P6SM VCSH SCT035 BKN070 OVC120
     FM290600 13007KT P6SM OVC070=



000
FTUS46 KSEW 281100
TAFCLM
TAF
KCLM 281130Z 2812/2912 28013G18KT P6SM VCSH SCT015 BKN060 BKN100
      TEMPO 2812/2816 BKN015
     FM281800 VRB04KT P6SM VCSH SCT035 BKN070
     FM290800 25003KT P6SM OVC060=



000
FTUS46 KSEW 281100
TAFBFI
TAF
KBFI 281130Z 2812/2912 20012G18KT P6SM VCSH SCT019 SCT024 BKN090
      TEMPO 2812/2816 BKN019 BKN030
     FM282000 21010G16KT P6SM VCSH SCT021 BKN035 BKN060
     FM290400 VRB03KT P6SM SCT045 BKN080 OVC180
     FM291000 VRB03KT P6SM OVC080=



000
FTUS46 KSEW 281100
TAFOLM
TAF
KOLM 281130Z 2812/2912 22010G18KT P6SM VCSH BKN022 OVC030
     FM281800 23006KT P6SM VCSH SCT020 BKN040 BKN070
     FM290400 16004KT P6SM SCT045 BKN080 OVC180
     FM291000 15004KT P6SM OVC080=



000
FTUS46 KSEW 281100
TAFPAE
TAF
KPAE 281130Z 2812/2912 22012G20KT P6SM -SHRA BKN013 OVC100
      TEMPO 2814/2818 30008KT P6SM -SHRA BKN011 OVC020
     FM281800 VRB06KT P6SM VCSH SCT013 BKN022 OVC030
     FM282200 16008KT P6SM SCT025 BKN035 OVC050
     FM290400 14008KT P6SM SCT040 OVC070
     FM290900 14008KT P6SM -RA OVC070=



000
FTUS46 KSEW 281100
TAFCLM
TAF
KCLM 281130Z 2812/2912 28013G18KT P6SM VCSH SCT015 BKN060 BKN100
      TEMPO 2812/2816 BKN015
     FM281800 VRB04KT P6SM VCSH SCT035 BKN070
     FM290800 25003KT P6SM OVC060=



000
FTUS46 KSEW 281100
TAFBLI
TAF
KBLI 281130Z 2812/2912 19014G22KT P6SM -SHRA SCT025 BKN040 OVC070
      TEMPO 2812/2816 P6SM -RA BKN022 OVC035
     FM290000 18006KT P6SM SCT040 OVC080
     FM291000 14007KT P6SM -RA OVC050=



000
FTUS46 KSEW 281100
TAFHQM
TAF
KHQM 281130Z 2812/2912 24015G25KT P6SM SCT018 BKN035
      TEMPO 2812/2816 5SM -SHRA BR BKN018 OVC035
     FM282200 19009KT P6SM VCSH SCT035 BKN070 OVC120
     FM290600 13007KT P6SM OVC070=



000
FTUS46 KSEW 281100
TAFSEA
TAF
KSEA 281130Z 2812/2918 21016G24KT P6SM VCSH BKN016 BKN022
      TEMPO 2816/2820 SCT016 BKN025
     FM282000 22012G18KT P6SM VCSH SCT018 BKN035 BKN060
     FM290400 16004KT P6SM SCT045 BKN080 OVC180
     FM291000 15004KT P6SM OVC080=



000
FTUS46 KSEW 280900 AAA
TAFSEA
TAF AMD
KSEA 280900Z 2809/2912 20018G25KT P6SM FEW008 SCT017 BKN022
      TEMPO 2809/2810 P6SM -SHRA SCT013 OVC022
     FM281000 22014G24KT P6SM -SHRA BKN018 OVC030
     FM282000 22010G16KT P6SM VCSH SCT018 BKN035 BKN060
     FM290400 16004KT P6SM SCT045 BKN080 OVC180=



000
FTUS46 KSEW 280500
TAFBLI
TAF
KBLI 280530Z 2806/2906 VRB06KT P6SM -RA SCT020 BKN035 OVC045
      TEMPO 2806/2810 3SM RA BR BKN018 OVC030
     FM281000 20010KT P6SM -SHRA OVC025
     FM282000 18006KT P6SM VCSH SCT020 BKN035 OVC060=



000
FTUS46 KSEW 280500
TAFOLM
TAF
KOLM 280530Z 2806/2906 22006KT P6SM -RA SCT013 BKN040 OVC060
      TEMPO 2806/2810 P6SM -RA BKN013 OVC025
     FM281000 23010G18KT P6SM -SHRA BKN013 OVC030
      TEMPO 2812/2816 P6SM -SHRA OVC007
     FM281800 23006KT P6SM VCSH SCT020 BKN040 BKN070=



000
FTUS46 KSEW 280500
TAFPAE
TAF
KPAE 280530Z 2806/2906 19015G28KT P6SM SCT011 BKN035 OVC060
      TEMPO 2806/2810 P6SM -RA SCT011 OVC021
     FM281000 19015G28KT P6SM -SHRA BKN016 OVC025
     FM281800 VRB06KT P6SM -SHRA SCT013 OVC025=



000
FTUS46 KSEW 280500
TAFHQM
TAF
KHQM 280530Z 2806/2906 22017G27KT P6SM SCT011 BKN028 OVC040
      TEMPO 2806/2810 4SM -RA BR OVC011
     FM281000 24012G20KT P6SM -SHRA OVC015
      TEMPO 2812/2816 5SM -SHRA BR OVC007
     FM282200 19009KT P6SM VCSH SCT035 BKN070 OVC120=



000
FTUS46 KSEW 280500
TAFSEA
TAF
KSEA 280530Z 2806/2912 22014G24KT P6SM SCT013 BKN035 OVC060
      TEMPO 2806/2810 P6SM -RA SCT013 OVC023
     FM281000 22014G24KT P6SM -SHRA BKN018 OVC030
     FM282000 22010G16KT P6SM VCSH SCT018 BKN035 BKN060
     FM290400 16004KT P6SM SCT045 BKN080 OVC180=



000
FTUS46 KSEW 280500
TAFCLM
TAF
KCLM 280530Z 2806/2906 26007KT P6SM FEW050 SCT070 SCT120
      TEMPO 2806/2808 -RA OVC050
     FM281000 26013G23KT P6SM VCSH SCT015 BKN035 BKN070
      TEMPO 2812/2816 OVC015
     FM281800 VRB04KT P6SM VCSH SCT035 BKN070=



000
FTUS46 KSEW 280500
TAFBLI
TAF
KBLI 280530Z 2806/2906 VRB06KT P6SM -RA SCT020 BKN035 OVC045
      TEMPO 2806/2810 3SM RA BR BKN018 OVC030
     FM281000 20010KT P6SM -SHRA OVC025
     FM282000 18006KT P6SM VCSH SCT020 BKN035 OVC060=



000
FTUS46 KSEW 280500
TAFHQM
TAF
KHQM 280530Z 2806/2906 22017G27KT P6SM SCT011 BKN028 OVC040
      TEMPO 2806/2810 4SM -RA BR OVC011
     FM281000 24012G20KT P6SM -SHRA OVC015
      TEMPO 2812/2816 5SM -SHRA BR OVC007
     FM282200 19009KT P6SM VCSH SCT035 BKN070 OVC120=



000
FTUS46 KSEW 280500
TAFOLM
TAF
KOLM 280530Z 2806/2906 22006KT P6SM -RA SCT013 BKN040 OVC060
      TEMPO 2806/2810 P6SM -RA BKN013 OVC025
     FM281000 23010G18KT P6SM -SHRA BKN013 OVC030
      TEMPO 2812/2816 P6SM -SHRA OVC007
     FM281800 23006KT P6SM VCSH SCT020 BKN040 BKN070=



000
FTUS46 KSEW 280500
TAFPAE
TAF
KPAE 280530Z 2806/2906 19015G28KT P6SM SCT011 BKN035 OVC060
      TEMPO 2806/2810 P6SM -RA SCT011 OVC021
     FM281000 19015G28KT P6SM -SHRA BKN016 OVC025
     FM281800 VRB06KT P6SM -SHRA SCT013 OVC025=



000
FTUS46 KSEW 280500
TAFBFI
TAF
KBFI 280530Z 2806/2906 21013G22KT P6SM SCT015 BKN040 OVC060
      TEMPO 2806/2810 P6SM -RA SCT015 OVC026
     FM281000 21013G22KT P6SM -SHRA BKN021 OVC030
     FM282000 21008KT P6SM VCSH SCT021 BKN040 BKN060=



000
FTUS46 KSEW 280500
TAFCLM
TAF
KCLM 280530Z 2806/2906 26007KT P6SM FEW050 SCT070 SCT120
      TEMPO 2806/2808 -RA OVC050
     FM281000 26013G23KT P6SM VCSH SCT015 BKN035 BKN070
      TEMPO 2812/2816 OVC015
     FM281800 VRB04KT P6SM VCSH SCT035 BKN070=



000
FTUS46 KSEW 280500
TAFSEA
TAF
KSEA 280530Z 2806/2912 22014G24KT P6SM SCT013 BKN035 OVC060
      TEMPO 2806/2810 P6SM -RA SCT013 OVC023
     FM281000 22014G24KT P6SM -SHRA BKN018 OVC030
     FM282000 22010G16KT P6SM VCSH SCT018 BKN035 BKN060
     FM290400 16004KT P6SM SCT045 BKN080 OVC180=



000
FTUS46 KSEW 280500
TAFBFI
TAF
KBFI 280530Z 2806/2906 21013G22KT P6SM SCT015 BKN040 OVC060
      TEMPO 2806/2810 P6SM -RA SCT015 OVC026
     FM281000 21013G22KT P6SM -SHRA BKN021 OVC030
     FM282000 21008KT P6SM VCSH SCT021 BKN040 BKN060=



000
FTUS46 KSEW 272300
TAFBFI
TAF
KBFI 272320Z 2800/2824 26006KT P6SM SCT040 BKN100
     FM280300 22010KT P6SM BKN040 OVC080
      TEMPO 2804/2808 -RA OVC035
     FM280800 22010KT P6SM -SHRA BKN025 BKN050
     FM281200 20007KT P6SM VCSH BKN035
     FM281800 20007KT P6SM SCT040=



000
FTUS46 KSEW 272300
TAFSEA
TAF
KSEA 272320Z 2800/2906 24010KT P6SM SCT040 BKN100
     FM280300 22012KT P6SM BKN040 OVC080
      TEMPO 2804/2808 -RA OVC030
     FM280800 22012KT P6SM -SHRA BKN020 BKN050
     FM281200 22010KT P6SM VCSH BKN030
     FM281800 23007KT P6SM SCT040=



000
FTUS46 KSEW 272300
TAFBLI
TAF
KBLI 272320Z 2800/2824 15012KT P6SM SCT040 BKN100
     FM280400 22012KT P6SM BKN040 OVC080
      TEMPO 2806/2810 -RA OVC030
     FM281000 22012KT P6SM -SHRA BKN020 BKN050
     FM281200 22010KT P6SM VCSH BKN030
     FM281800 23007KT P6SM BKN040=



000
FTUS46 KSEW 272300
TAFOLM
TAF
KOLM 272320Z 2800/2824 24014KT P6SM BKN035 BKN100
     FM280400 22012KT P6SM -RA OVC030
     FM280800 22012KT P6SM -SHRA BKN020 BKN050
     FM281200 22010KT P6SM VCSH BKN030
     FM281800 23007KT P6SM SCT040=



000
FTUS46 KSEW 272300
TAFHQM
TAF
KHQM 272320Z 2800/2824 18012KT 4SM BR BKN012 OVC020
     FM280200 20012G22KT P6SM -RA OVC015
     FM280600 28012KT P6SM -SHRA BKN015 OVC030
     FM281200 28010KT P6SM VCSH BKN020 BKN040=



000
FTUS46 KSEW 272300
TAFCLM
TAF
KCLM 272320Z 2800/2824 VRB04KT P6SM SCT040 BKN100
     FM280300 28008KT P6SM BKN040 OVC080
      TEMPO 2804/2808 -RA OVC030
     FM280800 28012KT P6SM -SHRA BKN020 BKN050
     FM281200 28010KT P6SM VCSH BKN030
     FM281800 28008KT P6SM BKN040=



000
FTUS46 KSEW 272300
TAFPAE
TAF
KPAE 272320Z 2800/2824 21014G22KT P6SM SCT040 BKN100
     FM280300 21012G22KT P6SM BKN040 OVC080
      TEMPO 2804/2808 -RA OVC030
     FM280800 22012KT P6SM -SHRA BKN020 BKN050
     FM281200 28010KT P6SM -SHRA OVC020
     FM281800 28008KT P6SM BKN030=



000
FTUS46 KSEW 272300
TAFCLM
TAF
KCLM 272320Z 2800/2824 VRB04KT P6SM SCT040 BKN100
     FM280300 28008KT P6SM BKN040 OVC080
      TEMPO 2804/2808 -RA OVC030
     FM280800 28012KT P6SM -SHRA BKN020 BKN050
     FM281200 28010KT P6SM VCSH BKN030
     FM281800 28008KT P6SM BKN040=



000
FTUS46 KSEW 272300
TAFSEA
TAF
KSEA 272320Z 2800/2906 24010KT P6SM SCT040 BKN100
     FM280300 22012KT P6SM BKN040 OVC080
      TEMPO 2804/2808 -RA OVC030
     FM280800 22012KT P6SM -SHRA BKN020 BKN050
     FM281200 22010KT P6SM VCSH BKN030
     FM281800 23007KT P6SM SCT040=



000
FTUS46 KSEW 272300
TAFBLI
TAF
KBLI 272320Z 2800/2824 15012KT P6SM SCT040 BKN100
     FM280400 22012KT P6SM BKN040 OVC080
      TEMPO 2806/2810 -RA OVC030
     FM281000 22012KT P6SM -SHRA BKN020 BKN050
     FM281200 22010KT P6SM VCSH BKN030
     FM281800 23007KT P6SM BKN040=



000
FTUS46 KSEW 272300
TAFBFI
TAF
KBFI 272320Z 2800/2824 26006KT P6SM SCT040 BKN100
     FM280300 22010KT P6SM BKN040 OVC080
      TEMPO 2804/2808 -RA OVC035
     FM280800 22010KT P6SM -SHRA BKN025 BKN050
     FM281200 20007KT P6SM VCSH BKN035
     FM281800 20007KT P6SM SCT040=



000
FTUS46 KSEW 272300
TAFPAE
TAF
KPAE 272320Z 2800/2824 21014G22KT P6SM SCT040 BKN100
     FM280300 21012G22KT P6SM BKN040 OVC080
      TEMPO 2804/2808 -RA OVC030
     FM280800 22012KT P6SM -SHRA BKN020 BKN050
     FM281200 28010KT P6SM -SHRA OVC020
     FM281800 28008KT P6SM BKN030=



000
FTUS46 KSEW 272300
TAFOLM
TAF
KOLM 272320Z 2800/2824 24014KT P6SM BKN035 BKN100
     FM280400 22012KT P6SM -RA OVC030
     FM280800 22012KT P6SM -SHRA BKN020 BKN050
     FM281200 22010KT P6SM VCSH BKN030
     FM281800 23007KT P6SM SCT040=



000
FTUS46 KSEW 272100 AAA
TAFHQM
TAF AMD
KHQM 272104Z 2721/2818 17012KT P6SM OVC015
     FM272300 20012G22KT P6SM -RA OVC015
     FM280800 28012KT P6SM -SHRA BKN015 OVC030
     FM281200 28010KT P6SM VCSH BKN020 BKN040=



000
FTUS46 KSEW 272100 AAA
TAFHQM
TAF AMD
KHQM 272104Z 2721/2818 17012KT P6SM OVC015
     FM272300 20012G22KT P6SM -RA OVC015
     FM280800 28012KT P6SM -SHRA BKN015 OVC030
     FM281200 28010KT P6SM VCSH BKN020 BKN040=



000
FTUS46 KSEW 272100 AAA
TAFPAE
TAF AMD
KPAE 272103Z 2721/2818 18015G22KT P6SM BKN150
     FM272200 18015G22KT P6SM BKN040 BKN120
     FM280300 20012KT P6SM -RA BKN020 OVC040
     FM281200 21010KT P6SM -SHRA BKN015 BKN030
     FM281700 23007KT P6SM VCSH BKN025 BKN050=



000
FTUS46 KSEW 272100 AAA
TAFPAE
TAF AMD
KPAE 272103Z 2721/2818 18015G22KT P6SM BKN150
     FM272200 18015G22KT P6SM BKN040 BKN120
     FM280300 20012KT P6SM -RA BKN020 OVC040
     FM281200 21010KT P6SM -SHRA BKN015 BKN030
     FM281700 23007KT P6SM VCSH BKN025 BKN050=



000
FTUS46 KSEW 272100 AAA
TAFSEA
TAF AMD
KSEA 272102Z 2721/2824 21012KT P6SM SCT040 BKN120
     FM272300 21012KT P6SM BKN040 OVC100
     FM280200 21012KT P6SM -RA BKN020 OVC040
     FM280700 21010KT P6SM -SHRA BKN015 BKN030
     FM281700 24007KT P6SM VCSH BKN025 BKN050=



000
FTUS46 KSEW 272100 AAA
TAFSEA
TAF AMD
KSEA 272102Z 2721/2824 21012KT P6SM SCT040 BKN120
     FM272300 21012KT P6SM BKN040 OVC100
     FM280200 21012KT P6SM -RA BKN020 OVC040
     FM280700 21010KT P6SM -SHRA BKN015 BKN030
     FM281700 24007KT P6SM VCSH BKN025 BKN050=



000
FTUS46 KSEW 271800 AAA
TAFBLI
TAF AMD
KBLI 271801Z 2718/2818 18006KT P6SM BKN150
     FM272200 18010KT P6SM BKN040 BKN120
     FM280300 18012KT P6SM -RA BKN020 OVC040
     FM281200 21012KT P6SM -SHRA BKN015 BKN030
     FM281700 23007KT P6SM VCSH BKN025 BKN050=



000
FTUS46 KSEW 271700
TAFBFI
TAF
KBFI 271720Z 2718/2818 16006KT P6SM BKN150
     FM272200 17006KT P6SM BKN040 BKN120
     FM280300 20010KT P6SM -RA BKN025 OVC040
     FM281200 21010KT P6SM -SHRA BKN020 BKN035
     FM281700 23007KT P6SM VCSH BKN030 BKN050=



000
FTUS46 KSEW 271700
TAFBLI
TAF
KBLI 271720Z 2718/2818 VRB03KT 4SM BR BKN005 BKN150
     FM271930 16006KT P6SM SCT010 BKN150
     FM272200 18010KT P6SM BKN040 BKN120
     FM280300 18012KT P6SM -RA BKN020 OVC040
     FM281200 21012KT P6SM -SHRA BKN015 BKN030
     FM281700 23007KT P6SM VCSH BKN025 BKN050=



000
FTUS46 KSEW 271700
TAFPAE
TAF
KPAE 271720Z 2718/2818 18008KT P6SM BKN150
     FM272200 18012KT P6SM BKN040 BKN120
     FM280300 20012KT P6SM -RA BKN020 OVC040
     FM281200 21010KT P6SM -SHRA BKN015 BKN030
     FM281700 23007KT P6SM VCSH BKN025 BKN050=



000
FTUS46 KSEW 271700
TAFSEA
TAF
KSEA 271720Z 2718/2824 18006KT P6SM BKN150
     FM272200 18010KT P6SM BKN040 BKN120
     FM280300 20012KT P6SM -RA BKN020 OVC040
     FM281200 21010KT P6SM -SHRA BKN015 BKN030
     FM281700 23007KT P6SM VCSH BKN025 BKN050=



000
FTUS46 KSEW 271700
TAFHQM
TAF
KHQM 271720Z 2718/2818 20008KT 5SM BR BKN005 BKN100
     FM272000 21010G20KT P6SM -RA BKN020 OVC050
     FM280000 20012G22KT P6SM -RA SCT010 OVC020
     FM280800 28012KT P6SM -SHRA BKN015 OVC030
     FM281200 28010KT P6SM VCSH BKN020 BKN040=



000
FTUS46 KSEW 271700
TAFCLM
TAF
KCLM 271720Z 2718/2818 VRB03KT P6SM BKN150
     FM272200 VRB03KT P6SM BKN040 BKN120
     FM280000 26006KT P6SM -RA BKN020 OVC040
     FM281000 28012KT P6SM -SHRA BKN015 BKN030
     FM281400 28008KT P6SM VCSH BKN025 BKN050=



000
FTUS46 KSEW 271700
TAFOLM
TAF
KOLM 271720Z 2718/2818 23008KT P6SM SCT030 BKN150
     FM272200 23012KT P6SM BKN030 BKN120
     FM280300 22010KT P6SM -RA BKN020 OVC040
     FM281200 23010KT P6SM -SHRA BKN015 BKN030
     FM281700 23008KT P6SM VCSH BKN025 BKN050=



000
FTUS46 KSEW 271600 AAC
TAFHQM
TAF AMD
KHQM 271601Z 2716/2812 15005KT 1/2SM FG VV002
     FM271730 10008KT 4SM BR BKN005 BKN070 OVC120
     FM272000 21009KT P6SM VCSH BKN030 OVC060
      TEMPO 2720/2724 -RA OVC025
     FM280200 20010KT P6SM -RA SCT010 OVC020=



000
FTUS46 KSEW 271500 AAA
TAFBLI
TAF AMD
KBLI 271502Z 2715/2812 00000KT 1/4SM FG VV001
     FM271700 VRB03KT 1SM BR BKN008 BKN200
     FM271900 18005KT P6SM SCT030 BKN120 BKN200
     FM272100 20007KT P6SM BKN030 BKN070 OVC120
     FM280000 17010KT P6SM OVC030
     FM280600 18012KT P6SM -RA SCT015 OVC025=



000
FTUS46 KSEW 271500 AAB
TAFOLM
TAF AMD
KOLM 271501Z 2715/2812 20003KT 6SM BR SCT003 BKN150
      TEMPO 2715/2717 2SM BR BKN002 BKN150
     FM271700 20005KT P6SM SCT020 BKN120 BKN200
     FM272100 18008KT P6SM BKN030 BKN070 OVC120
     FM280000 22008KT P6SM OVC030
     FM280400 21012KT P6SM -RA SCT015 OVC025=



000
FTUS46 KSEW 271500 AAB
TAFOLM
TAF AMD
KOLM 271501Z 2715/2812 20003KT 6SM BR SCT003 BKN150
      TEMPO 2715/2717 2SM BR BKN002 BKN150
     FM271700 20005KT P6SM SCT020 BKN120 BKN200
     FM272100 18008KT P6SM BKN030 BKN070 OVC120
     FM280000 22008KT P6SM OVC030
     FM280400 21012KT P6SM -RA SCT015 OVC025=



000
FTUS46 KSEW 271500 AAA
TAFSEA
TAF AMD
KSEA 271500Z 2715/2818 15004KT 2SM BR SCT002 BKN150
      TEMPO 2715/2717 1/2SM FG VV001
     FM271800 18006KT P6SM SCT010 BKN120
     FM272100 22010KT P6SM BKN030 BKN070 OVC120
     FM280000 22010KT P6SM OVC030
     FM280500 20012KT P6SM -RA SCT015 OVC025
     FM281200 21010KT P6SM -SHRA SCT010 OVC020=



000
FTUS46 KSEW 271500 AAA
TAFSEA
TAF AMD
KSEA 271500Z 2715/2818 15004KT 2SM BR SCT002 BKN150
      TEMPO 2715/2717 1/2SM FG VV001
     FM271800 18006KT P6SM SCT010 BKN120
     FM272100 22010KT P6SM BKN030 BKN070 OVC120
     FM280000 22010KT P6SM OVC030
     FM280500 20012KT P6SM -RA SCT015 OVC025
     FM281200 21010KT P6SM -SHRA SCT010 OVC020=



000
FTUS46 KSEW 271300 AAA
TAFOLM
TAF AMD
KOLM 271337Z 2714/2812 19003KT 2SM BR BKN001
      TEMPO 2714/2715 5SM BR SCT001 BKN150
     FM271500 20003KT 3SM BR BKN003 BKN200
     FM271700 20005KT P6SM SCT020 BKN120 BKN200
     FM272100 18008KT P6SM BKN030 BKN070 OVC120
     FM280000 22008KT P6SM OVC030
     FM280400 21012KT P6SM -RA SCT015 OVC025=



000
FTUS46 KSEW 271300 AAA
TAFOLM
TAF AMD
KOLM 271337Z 2714/2812 19003KT 2SM BR BKN001
      TEMPO 2714/2715 5SM BR SCT001 BKN150
     FM271500 20003KT 3SM BR BKN003 BKN200
     FM271700 20005KT P6SM SCT020 BKN120 BKN200
     FM272100 18008KT P6SM BKN030 BKN070 OVC120
     FM280000 22008KT P6SM OVC030
     FM280400 21012KT P6SM -RA SCT015 OVC025=



000
FTUS46 KSEW 271300 AAB
TAFHQM
TAF AMD
KHQM 271321Z 2713/2812 06004KT P6SM SCT001 SCT070 BKN120
      TEMPO 2713/2716 1/2SM FG VV001
     FM271700 10008KT P6SM SCT010 BKN070 OVC120
     FM272000 21009KT P6SM VCSH BKN030 OVC060
      TEMPO 2720/2724 -RA OVC025
     FM280200 20010KT P6SM -RA SCT010 OVC020=



000
FTUS46 KSEW 271300 AAB
TAFHQM
TAF AMD
KHQM 271321Z 2713/2812 06004KT P6SM SCT001 SCT070 BKN120
      TEMPO 2713/2716 1/2SM FG VV001
     FM271700 10008KT P6SM SCT010 BKN070 OVC120
     FM272000 21009KT P6SM VCSH BKN030 OVC060
      TEMPO 2720/2724 -RA OVC025
     FM280200 20010KT P6SM -RA SCT010 OVC020=



000
FTUS46 KSEW 271300 AAA
TAFHQM
TAF AMD
KHQM 271313Z 2713/2812 06004KT 3SM BR BKN001
      TEMPO 2713/2716 1/2SM FG VV001
     FM271700 10008KT P6SM SCT010 BKN070 OVC120
     FM272000 21009KT P6SM VCSH BKN030 OVC060
      TEMPO 2720/2724 -RA OVC025
     FM280200 20010KT P6SM -RA SCT010 OVC020=



000
FTUS46 KSEW 271300 AAA
TAFHQM
TAF AMD
KHQM 271313Z 2713/2812 06004KT 3SM BR BKN001
      TEMPO 2713/2716 1/2SM FG VV001
     FM271700 10008KT P6SM SCT010 BKN070 OVC120
     FM272000 21009KT P6SM VCSH BKN030 OVC060
      TEMPO 2720/2724 -RA OVC025
     FM280200 20010KT P6SM -RA SCT010 OVC020=



000
FTUS46 KSEW 271100
TAFBFI
TAF
KBFI 271132Z 2712/2812 00000KT P6SM FEW015 FEW250
     FM271500 16003KT P6SM SCT015
     FM271800 20006KT P6SM SCT030 BKN250
     FM272100 22010KT P6SM BKN030 BKN070 OVC120
     FM280000 20008KT P6SM OVC035
     FM280500 20012KT P6SM -RA SCT020 OVC030=



000
FTUS46 KSEW 271100
TAFBLI
TAF
KBLI 271132Z 2712/2812 00000KT 1/4SM FG VV002
     FM271500 VRB03KT 1SM BR BKN008 BKN200
     FM271800 18005KT P6SM SCT030 BKN120 BKN200
     FM272100 20007KT P6SM BKN030 BKN070 OVC120
     FM280000 17010KT P6SM OVC030
     FM280600 18012KT P6SM -RA SCT015 OVC025=



000
FTUS46 KSEW 271100
TAFCLM
TAF
KCLM 271132Z 2712/2812 25003KT P6SM FEW200
     FM271800 30006KT P6SM SCT030 BKN060 BKN200
     FM272300 30006KT P6SM VCSH BKN030 OVC070
     FM280300 29008KT P6SM -RA SCT015 OVC025=



000
FTUS46 KSEW 271100
TAFSEA
TAF
KSEA 271132Z 2712/2818 01003KT P6SM FEW010 FEW250
     FM271500 15003KT P6SM SCT015
     FM271800 20006KT P6SM SCT025 BKN120 BKN200
     FM272100 22010KT P6SM BKN030 BKN070 OVC120
     FM280000 22010KT P6SM OVC030
     FM280500 20012KT P6SM -RA SCT015 OVC025
     FM281200 21010KT P6SM -SHRA SCT010 OVC020=



000
FTUS46 KSEW 271100
TAFSEA
TAF
KSEA 271132Z 2712/2818 01003KT P6SM FEW010 FEW250
     FM271500 15003KT P6SM SCT015
     FM271800 20006KT P6SM SCT025 BKN120 BKN200
     FM272100 22010KT P6SM BKN030 BKN070 OVC120
     FM280000 22010KT P6SM OVC030
     FM280500 20012KT P6SM -RA SCT015 OVC025
     FM281200 21010KT P6SM -SHRA SCT010 OVC020=



000
FTUS46 KSEW 271100
TAFBFI
TAF
KBFI 271132Z 2712/2812 00000KT P6SM FEW015 FEW250
     FM271500 16003KT P6SM SCT015
     FM271800 20006KT P6SM SCT030 BKN250
     FM272100 22010KT P6SM BKN030 BKN070 OVC120
     FM280000 20008KT P6SM OVC035
     FM280500 20012KT P6SM -RA SCT020 OVC030=



000
FTUS46 KSEW 271100
TAFPAE
TAF
KPAE 271132Z 2712/2812 00000KT P6SM SCT008
     FM271800 18006KT P6SM SCT025 BKN120 BKN200
     FM272100 18010KT P6SM BKN030 BKN070 OVC120
     FM280300 19010KT P6SM OVC025
     FM280500 19012KT P6SM -RA SCT010 OVC020=



000
FTUS46 KSEW 271100
TAFOLM
TAF
KOLM 271132Z 2712/2812 00000KT 1/2SM FG VV001
     FM271500 20003KT 1SM BR BKN008
     FM271700 20005KT P6SM SCT020 BKN120 BKN200
     FM272100 18008KT P6SM BKN030 BKN070 OVC120
     FM280000 22008KT P6SM OVC030
     FM280400 21012KT P6SM -RA SCT015 OVC025=



000
FTUS46 KSEW 271100
TAFHQM
TAF
KHQM 271132Z 2712/2812 07006KT 1/4SM FG VV001
     FM271500 05003KT 1SM BR BKN008
     FM271700 10008KT P6SM SCT010 BKN070 OVC120
     FM272000 21009KT P6SM VCSH BKN030 OVC060
      TEMPO 2720/2724 -RA OVC025
     FM280200 20010KT P6SM -RA SCT010 OVC020=



000
FTUS46 KSEW 271100
TAFHQM
TAF
KHQM 271132Z 2712/2812 07006KT 1/4SM FG VV001
     FM271500 05003KT 1SM BR BKN008
     FM271700 10008KT P6SM SCT010 BKN070 OVC120
     FM272000 21009KT P6SM VCSH BKN030 OVC060
      TEMPO 2720/2724 -RA OVC025
     FM280200 20010KT P6SM -RA SCT010 OVC020=



000
FTUS46 KSEW 271100
TAFPAE
TAF
KPAE 271132Z 2712/2812 00000KT P6SM SCT008
     FM271800 18006KT P6SM SCT025 BKN120 BKN200
     FM272100 18010KT P6SM BKN030 BKN070 OVC120
     FM280300 19010KT P6SM OVC025
     FM280500 19012KT P6SM -RA SCT010 OVC020=



000
FTUS46 KSEW 271100
TAFCLM
TAF
KCLM 271132Z 2712/2812 25003KT P6SM FEW200
     FM271800 30006KT P6SM SCT030 BKN060 BKN200
     FM272300 30006KT P6SM VCSH BKN030 OVC070
     FM280300 29008KT P6SM -RA SCT015 OVC025=



000
FTUS46 KSEW 271100
TAFBLI
TAF
KBLI 271132Z 2712/2812 00000KT 1/4SM FG VV002
     FM271500 VRB03KT 1SM BR BKN008 BKN200
     FM271800 18005KT P6SM SCT030 BKN120 BKN200
     FM272100 20007KT P6SM BKN030 BKN070 OVC120
     FM280000 17010KT P6SM OVC030
     FM280600 18012KT P6SM -RA SCT015 OVC025=



000
FTUS46 KSEW 271100
TAFOLM
TAF
KOLM 271132Z 2712/2812 00000KT 1/2SM FG VV001
     FM271500 20003KT 1SM BR BKN008
     FM271700 20005KT P6SM SCT020 BKN120 BKN200
     FM272100 18008KT P6SM BKN030 BKN070 OVC120
     FM280000 22008KT P6SM OVC030
     FM280400 21012KT P6SM -RA SCT015 OVC025=



000
FTUS46 KSEW 271000 AAC
TAFHQM
TAF AMD
KHQM 271049Z 2711/2806 07006KT 1/4SM FG VV002
     FM271500 05003KT 1SM BR OVC008
     FM271700 10008KT P6SM SCT010 BKN070 OVC120
     FM272000 21009KT P6SM VCSH BKN030 OVC060
      TEMPO 2720/2724 -RA OVC025
     FM280000 20010KT P6SM -RA SCT010 OVC020=



000
FTUS46 KSEW 271000 AAB
TAFBLI
TAF AMD
KBLI 271049Z 2711/2806 00000KT 1/4SM FG VV001
     FM271500 15003KT 1SM BR BKN008 BKN200
     FM271800 18005KT P6SM SCT030 BKN120 BKN200
     FM272100 20007KT P6SM BKN030 BKN070 OVC120
     FM280000 17010KT P6SM OVC030=



000
FTUS46 KSEW 271000 AAB
TAFBLI
TAF AMD
KBLI 271049Z 2711/2806 00000KT 1/4SM FG VV001
     FM271500 15003KT 1SM BR BKN008 BKN200
     FM271800 18005KT P6SM SCT030 BKN120 BKN200
     FM272100 20007KT P6SM BKN030 BKN070 OVC120
     FM280000 17010KT P6SM OVC030=



000
FTUS46 KSEW 271000 AAA
TAFPAE
TAF AMD
KPAE 271045Z 2711/2806 00000KT P6SM FEW250
     FM271200 00000KT P6SM SCT008
     FM271800 18006KT P6SM SCT025 BKN120 BKN200
     FM272100 18010KT P6SM BKN030 BKN070 OVC120
     FM280000 19012G20KT P6SM OVC025=



000
FTUS46 KSEW 271000 AAA
TAFBFI
TAF AMD
KBFI 271044Z 2711/2806 00000KT P6SM FEW250
     FM271200 00000KT P6SM FEW015 FEW250
     FM271800 20006KT P6SM SCT030 BKN250
     FM272100 22010KT P6SM BKN030 BKN070 OVC120
     FM280000 20008KT P6SM OVC035=



000
FTUS46 KSEW 271000 AAB
TAFSEA
TAF AMD
KSEA 271042Z 2711/2812 03005KT P6SM FEW250
     FM271200 15004KT P6SM FEW010 FEW250
     FM271700 19006KT P6SM SCT025 BKN120 BKN200
     FM272100 22010KT P6SM BKN030 BKN070 OVC120
     FM280000 22010KT P6SM OVC030
     FM280600 20012KT P6SM -RA SCT015 OVC025=



000
FTUS46 KSEW 270900 AAB
TAFHQM
TAF AMD
KHQM 271000Z 2710/2806 06003KT 5SM BR SCT010
     FM271200 05003KT 1SM BR OVC008
     FM271500 10007KT P6SM BKN030 BKN070 OVC120
     FM272000 21009KT P6SM VCSH BKN030 OVC060
      TEMPO 2720/2724 -RA OVC025
     FM280000 20010KT P6SM -RA SCT010 OVC020=



000
FTUS46 KSEW 270900 AAB
TAFHQM
TAF AMD
KHQM 271000Z 2710/2806 06003KT 5SM BR SCT010
     FM271200 05003KT 1SM BR OVC008
     FM271500 10007KT P6SM BKN030 BKN070 OVC120
     FM272000 21009KT P6SM VCSH BKN030 OVC060
      TEMPO 2720/2724 -RA OVC025
     FM280000 20010KT P6SM -RA SCT010 OVC020=



000
FTUS46 KSEW 270900 AAB
TAFOLM
TAF AMD
KOLM 270959Z 2710/2806 00000KT 1SM BR SKC
     FM271200 00000KT 1/2SM FG BKN001
     FM271700 20005KT P6SM SCT020 BKN120 BKN200
     FM272100 18008KT P6SM BKN030 BKN070 OVC120
     FM280000 22008KT P6SM OVC030=



000
FTUS46 KSEW 270800 AAA
TAFHQM
TAF AMD
KHQM 270854Z 2709/2806 06003KT 1 1/2SM BR SCT010
     FM271200 05003KT 1SM BR OVC008
     FM271500 10007KT P6SM BKN030 BKN070 OVC120
     FM272000 21009KT P6SM VCSH BKN030 OVC060
      TEMPO 2720/2724 -RA OVC025
     FM280000 20010KT P6SM -RA SCT010 OVC020=



000
FTUS46 KSEW 270800 AAA
TAFHQM
TAF AMD
KHQM 270854Z 2709/2806 06003KT 1 1/2SM BR SCT010
     FM271200 05003KT 1SM BR OVC008
     FM271500 10007KT P6SM BKN030 BKN070 OVC120
     FM272000 21009KT P6SM VCSH BKN030 OVC060
      TEMPO 2720/2724 -RA OVC025
     FM280000 20010KT P6SM -RA SCT010 OVC020=



000
FTUS46 KSEW 270800 AAA
TAFSEA
TAF AMD
KSEA 270851Z 2709/2812 02007KT P6SM FEW250
     FM271200 15004KT P6SM BKN015 BKN200
     FM271700 19006KT P6SM SCT025 BKN120 BKN200
     FM272100 22010KT P6SM BKN030 BKN070 OVC120
     FM280000 22010KT P6SM OVC030
     FM280600 20012KT P6SM -RA SCT015 OVC025=



000
FTUS46 KSEW 270800 AAA
TAFSEA
TAF AMD
KSEA 270851Z 2709/2812 02007KT P6SM FEW250
     FM271200 15004KT P6SM BKN015 BKN200
     FM271700 19006KT P6SM SCT025 BKN120 BKN200
     FM272100 22010KT P6SM BKN030 BKN070 OVC120
     FM280000 22010KT P6SM OVC030
     FM280600 20012KT P6SM -RA SCT015 OVC025=



000
FTUS46 KSEW 270800 AAA
TAFOLM
TAF AMD
KOLM 270849Z 2709/2806 VRB04KT P6SM SCT250
     FM271100 00000KT 1SM BR OVC008
     FM271200 00000KT 1/2SM FG BKN001
     FM271700 20005KT P6SM SCT020 BKN120 BKN200
     FM272100 18008KT P6SM BKN030 BKN070 OVC120
     FM280000 22008KT P6SM OVC030=



000
FTUS46 KSEW 270800 AAA
TAFOLM
TAF AMD
KOLM 270849Z 2709/2806 VRB04KT P6SM SCT250
     FM271100 00000KT 1SM BR OVC008
     FM271200 00000KT 1/2SM FG BKN001
     FM271700 20005KT P6SM SCT020 BKN120 BKN200
     FM272100 18008KT P6SM BKN030 BKN070 OVC120
     FM280000 22008KT P6SM OVC030=



000
FTUS46 KSEW 270800 AAA
TAFBLI
TAF AMD
KBLI 270844Z 2709/2806 00000KT 1/2SM FG VV002
     FM271400 15003KT 1SM BR BKN010 BKN200
     FM271800 18005KT P6SM SCT030 BKN120 BKN200
     FM272100 20007KT P6SM BKN030 BKN070 OVC120
     FM280000 17010KT P6SM OVC030=



000
FTUS46 KSEW 270500 RRA
TAFCLM
TAF
KCLM 270550Z 2706/2806 26006KT P6SM BKN250
     FM271200 25004KT P6SM BKN020 BKN200
     FM271800 30006KT P6SM SCT030 BKN060 BKN200
     FM272300 30006KT P6SM VCSH BKN030 OVC070
     FM280300 29008KT P6SM -RA SCT015 OVC025=



000
FTUS46 KSEW 270500 RRA
TAFPAE
TAF
KPAE 270550Z 2706/2806 36006KT P6SM SCT250
     FM271000 VRB04KT P6SM BKN010 BKN200
     FM271800 18006KT P6SM SCT025 BKN120 BKN200
     FM272100 18010KT P6SM BKN030 BKN070 OVC120
     FM280000 19012G20KT P6SM OVC025=



000
FTUS46 KSEW 270500 RRA
TAFOLM
TAF
KOLM 270550Z 2706/2806 VRB04KT P6SM SCT250
     FM270800 00000KT 1SM BR OVC008
      TEMPO 2708/2711 1/2SM FG BKN001
     FM271100 00000KT 1/2SM FG VV001
     FM271800 20005KT P6SM SCT020 BKN120 BKN200
     FM272100 18008KT P6SM BKN030 BKN070 OVC120
     FM280000 22008KT P6SM OVC030=



000
FTUS46 KSEW 270500 RRA
TAFPAE
TAF
KPAE 270550Z 2706/2806 36006KT P6SM SCT250
     FM271000 VRB04KT P6SM BKN010 BKN200
     FM271800 18006KT P6SM SCT025 BKN120 BKN200
     FM272100 18010KT P6SM BKN030 BKN070 OVC120
     FM280000 19012G20KT P6SM OVC025=



000
FTUS46 KSEW 270500 RRA
TAFBLI
TAF
KBLI 270550Z 2706/2806 VRB03KT P6SM BKN250
      TEMPO 2712/2716 BKN010
     FM271800 18005KT P6SM SCT030 BKN120 BKN200
     FM272100 20007KT P6SM BKN030 BKN070 OVC120
     FM280000 17010KT P6SM OVC030=



000
FTUS46 KSEW 270500 RRA
TAFSEA
TAF
KSEA 270550Z 2706/2812 36008KT P6SM SCT250
     FM270800 08005KT P6SM BKN200
     FM271200 15004KT P6SM BKN015 BKN200
     FM271700 19006KT P6SM SCT025 BKN120 BKN200
     FM272100 22010KT P6SM BKN030 BKN070 OVC120
     FM280000 22010KT P6SM OVC030
     FM280600 20012KT P6SM -RA SCT015 OVC025=



000
FTUS46 KSEW 270500 RRA
TAFHQM
TAF
KHQM 270550Z 2706/2806 00000KT P6SM FEW250
     FM270900 08005KT 3SM BR OVC010
     FM271500 10007KT P6SM BKN030 BKN070 OVC120
     FM272000 21009KT P6SM VCSH BKN030 OVC060
      TEMPO 2720/2724 -RA OVC025
     FM280000 20010KT P6SM -RA SCT010 OVC020=



000
FTUS46 KSEW 270500 RRA
TAFBFI
TAF
KBFI 270550Z 2706/2806 32003KT P6SM FEW035 SCT250
     FM270900 VRB03KT P6SM BKN200
     FM271000 15004KT P6SM BKN020 BKN200
     FM271800 20006KT P6SM SCT030 BKN120 BKN200
     FM272100 22010KT P6SM BKN030 BKN070 OVC120
     FM280000 20008KT P6SM OVC035=



000
FTUS46 KSEW 270500 RRA
TAFOLM
TAF
KOLM 270550Z 2706/2806 VRB04KT P6SM SCT250
     FM270800 00000KT 1SM BR OVC008
      TEMPO 2708/2711 1/2SM FG BKN001
     FM271100 00000KT 1/2SM FG VV001
     FM271800 20005KT P6SM SCT020 BKN120 BKN200
     FM272100 18008KT P6SM BKN030 BKN070 OVC120
     FM280000 22008KT P6SM OVC030=



000
FTUS46 KSEW 270500 RRA
TAFHQM
TAF
KHQM 270550Z 2706/2806 00000KT P6SM FEW250
     FM270900 08005KT 3SM BR OVC010
     FM271500 10007KT P6SM BKN030 BKN070 OVC120
     FM272000 21009KT P6SM VCSH BKN030 OVC060
      TEMPO 2720/2724 -RA OVC025
     FM280000 20010KT P6SM -RA SCT010 OVC020=



000
FTUS46 KSEW 270500 RRA
TAFSEA
TAF
KSEA 270550Z 2706/2812 36008KT P6SM SCT250
     FM270800 08005KT P6SM BKN200
     FM271200 15004KT P6SM BKN015 BKN200
     FM271700 19006KT P6SM SCT025 BKN120 BKN200
     FM272100 22010KT P6SM BKN030 BKN070 OVC120
     FM280000 22010KT P6SM OVC030
     FM280600 20012KT P6SM -RA SCT015 OVC025=



000
FTUS46 KSEW 270500 RRA
TAFBLI
TAF
KBLI 270550Z 2706/2806 VRB03KT P6SM BKN250
      TEMPO 2712/2716 BKN010
     FM271800 18005KT P6SM SCT030 BKN120 BKN200
     FM272100 20007KT P6SM BKN030 BKN070 OVC120
     FM280000 17010KT P6SM OVC030=



000
FTUS46 KSEW 270500 RRA
TAFCLM
TAF
KCLM 270550Z 2706/2806 26006KT P6SM BKN250
     FM271200 25004KT P6SM BKN020 BKN200
     FM271800 30006KT P6SM SCT030 BKN060 BKN200
     FM272300 30006KT P6SM VCSH BKN030 OVC070
     FM280300 29008KT P6SM -RA SCT015 OVC025=



000
FTUS46 KSEW 270500 RRA
TAFBFI
TAF
KBFI 270550Z 2706/2806 32003KT P6SM FEW035 SCT250
     FM270900 VRB03KT P6SM BKN200
     FM271000 15004KT P6SM BKN020 BKN200
     FM271800 20006KT P6SM SCT030 BKN120 BKN200
     FM272100 22010KT P6SM BKN030 BKN070 OVC120
     FM280000 20008KT P6SM OVC035=



000
FTUS46 KSEW 270300 AAA
TAFSEA
TAF AMD
KSEA 270301Z 2703/2806 VRB03KT P6SM FEW030 SCT150 SCT200
     FM271000 15004KT P6SM BKN015 BKN200
     FM271800 20006KT P6SM SCT025 BKN120 BKN200
     FM272100 22010KT P6SM BKN030 BKN070 OVC120
     FM280000 22010KT P6SM -RA OVC030=



000
FTUS46 KSEW 262300
TAFHQM
TAF
KHQM 262323Z 2700/2724 20009KT P6SM BKN200
     FM270600 10007KT P6SM BKN200
     FM270900 08005KT 3SM BR OVC010
     FM271500 10007KT P6SM BKN030 BKN070 OVC120
     FM272000 10009KT P6SM VCSH BKN030 OVC060
      TEMPO 2720/2724 -RA OVC025=



000
FTUS46 KSEW 262300
TAFCLM
TAF
KCLM 262323Z 2700/2724 VRB04KT P6SM BKN150 BKN200
     FM270600 24004KT P6SM BKN200
     FM271200 25004KT P6SM BKN020 BKN200
     FM271800 30006KT P6SM SCT030 BKN060 BKN200
     FM272300 30006KT P6SM VCSH BKN030 OVC070=



000
FTUS46 KSEW 262300
TAFBLI
TAF
KBLI 262323Z 2700/2724 18005KT P6SM BKN150 BKN200
     FM270600 VRB03KT P6SM BKN200
      TEMPO 2712/2716 BKN010
     FM271800 18005KT P6SM SCT030 BKN120 BKN200
     FM272100 20007KT P6SM BKN030 BKN070 OVC120=



000
FTUS46 KSEW 262300
TAFPAE
TAF
KPAE 262323Z 2700/2724 25008KT P6SM FEW030 SCT150 BKN200
     FM271000 VRB04KT P6SM BKN010 BKN200
     FM271800 18006KT P6SM SCT025 BKN120 BKN200
     FM272100 18010KT P6SM BKN030 BKN070 OVC120=



000
FTUS46 KSEW 262300
TAFSEA
TAF
KSEA 262323Z 2700/2806 VRB04KT P6SM FEW030 SCT150 BKN200
     FM271000 15004KT P6SM BKN015 BKN200
     FM271800 20006KT P6SM SCT025 BKN120 BKN200
     FM272100 22010KT P6SM BKN030 BKN070 OVC120
     FM280000 22010KT P6SM -RA OVC030=



000
FTUS46 KSEW 262300
TAFBFI
TAF
KBFI 262323Z 2700/2724 VRB04KT P6SM FEW035 SCT150 BKN200
     FM271000 15004KT P6SM BKN020 BKN200
     FM271800 20006KT P6SM SCT030 BKN120 BKN200
     FM272100 22010KT P6SM BKN030 BKN070 OVC120=



000
FTUS46 KSEW 262300
TAFOLM
TAF
KOLM 262323Z 2700/2724 VRB04KT P6SM BKN200
     FM270800 00000KT 1SM BR OVC008
      TEMPO 2708/2711 1/2SM FG BKN001
     FM271100 00000KT 1/2SM FG VV001
     FM271800 20005KT P6SM SCT020 BKN120 BKN200
     FM272100 18008KT P6SM BKN030 BKN070 OVC120=



000
FTUS46 KSEW 262100 AAA
TAFSEA
TAF AMD
KSEA 262102Z 2621/2724 24005KT P6SM FEW030 SCT150 BKN200
     FM270300 VRB04KT P6SM BKN200
     FM271200 15004KT P6SM BKN015 BKN200
     FM271800 20006KT P6SM SCT030 BKN120 BKN200=



    US Dept of Commerce
    National Oceanic and Atmospheric Administration
    National Weather Service
    1325 East West Highway
    Silver Spring, MD 20910
    Page Author: NWS Internet Services Team
Disclaimer
Information Quality
Credits
Glossary
Privacy Policy
Freedom of Information Act (FOIA)
About Us
Career Opportunities